Time;durP1;ratioP1;P1;durP2;ratioP2;P2;SDS_P1;SDS_P2;PMS_P1;PMS_P2;Temp;Humidity;BMP_temperature;BMP_pressure;BME280_temperature;BME280_humidity;BME280_pressure;Samples;Min_cycle;Max_cycle;Signal;HPM_P1;HPM_P2
2021/04/22 00:02:00;;;;;;;22.58;15.55;;;;;;;9.78;67.25;96237.66;5049062;28;20045;-65
2021/04/22 00:04:26;;;;;;;26.60;16.50;;;;;;;9.80;67.66;96231.91;5049438;28;20102;-65
2021/04/22 00:06:52;;;;;;;25.10;15.93;;;;;;;9.82;67.20;96233.22;5048954;28;20056;-65
2021/04/22 00:09:19;;;;;;;24.08;16.27;;;;;;;9.81;66.76;96236.22;5049497;28;20051;-65
2021/04/22 00:11:45;;;;;;;22.73;15.98;;;;;;;9.79;67.02;96231.09;5049090;28;20041;-65
2021/04/22 00:14:12;;;;;;;23.85;16.83;;;;;;;9.80;67.11;96231.91;5049234;28;20045;-65
2021/04/22 00:16:39;;;;;;;26.60;16.33;;;;;;;9.74;66.98;96238.59;5049654;28;20094;-65
2021/04/22 00:19:06;;;;;;;24.48;16.50;;;;;;;9.72;67.31;96233.50;5053195;28;20049;-65
2021/04/22 00:21:32;;;;;;;24.52;15.73;;;;;;;9.72;67.68;96236.22;5053663;28;20047;-65
2021/04/22 00:23:58;;;;;;;26.38;17.85;;;;;;;9.73;67.25;96226.13;5052486;28;20052;-65
2021/04/22 00:26:25;;;;;;;27.48;17.35;;;;;;;9.71;66.95;96223.75;5052657;28;20052;-65
2021/04/22 00:28:51;;;;;;;26.13;16.67;;;;;;;9.73;67.22;96224.22;5052000;28;20495;-65
2021/04/22 00:31:17;;;;;;;25.50;17.15;;;;;;;9.72;66.89;96213.66;5052979;28;20068;-64
2021/04/22 00:33:43;;;;;;;24.75;17.40;;;;;;;9.68;67.41;96218.91;5052096;28;20041;-65
2021/04/22 00:36:09;;;;;;;25.90;17.48;;;;;;;9.59;68.20;96209.94;5052648;28;20056;-65
2021/04/22 00:38:35;;;;;;;26.20;17.02;;;;;;;9.46;68.50;96211.66;5052279;28;20454;-65
2021/04/22 00:41:01;;;;;;;30.63;17.38;;;;;;;9.24;69.99;96208.97;5052106;28;20053;-68
2021/04/22 00:43:28;;;;;;;29.85;19.40;;;;;;;9.01;70.75;96225.34;5052307;28;20099;-65
2021/04/22 00:45:54;;;;;;;32.28;20.60;;;;;;;8.95;71.89;96223.88;5052324;28;20056;-65
2021/04/22 00:48:22;;;;;;;31.98;20.00;;;;;;;8.89;72.21;96230.53;5052285;28;20515;-65
2021/04/22 00:50:50;;;;;;;26.42;18.25;;;;;;;8.70;72.23;96225.28;5051732;28;20056;-64
2021/04/22 00:53:16;;;;;;;29.73;19.13;;;;;;;8.59;72.58;96227.44;5052436;28;20060;-65
2021/04/22 00:55:42;;;;;;;32.28;18.70;;;;;;;8.54;72.99;96233.00;5051401;28;20053;-65
2021/04/22 00:58:09;;;;;;;26.85;18.23;;;;;;;8.36;73.30;96239.41;5052631;28;20052;-65
2021/04/22 01:00:38;;;;;;;28.40;18.85;;;;;;;8.30;73.42;96235.97;5051524;28;20118;-65
2021/04/22 01:03:05;;;;;;;29.88;19.02;;;;;;;8.29;73.42;96228.13;5051997;28;20045;-65
2021/04/22 01:05:33;;;;;;;29.67;18.92;;;;;;;8.25;73.32;96224.44;5051970;28;20500;-65
2021/04/22 01:07:59;;;;;;;27.58;18.60;;;;;;;8.26;73.31;96234.19;5051944;28;20535;-65
2021/04/22 01:10:25;;;;;;;28.48;18.80;;;;;;;8.22;73.66;96238.59;5051558;28;20036;-64
2021/04/22 01:12:51;;;;;;;31.13;19.13;;;;;;;8.28;73.42;96231.94;5051473;28;20053;-65
2021/04/22 01:15:19;;;;;;;29.55;18.83;;;;;;;8.29;73.76;96228.13;5051754;28;20504;-65
2021/04/22 01:17:46;;;;;;;28.38;18.58;;;;;;;8.31;74.19;96226.72;5050819;28;20049;-65
2021/04/22 01:20:15;;;;;;;28.85;19.00;;;;;;;8.37;74.04;96224.72;5052245;28;20049;-65
2021/04/22 01:22:42;;;;;;;28.88;19.02;;;;;;;8.40;73.69;96228.72;5051186;28;20622;-65
2021/04/22 01:25:12;;;;;;;32.22;19.08;;;;;;;8.42;73.57;96221.91;5051734;28;20650;-65
2021/04/22 01:27:38;;;;;;;28.15;20.02;;;;;;;8.48;73.57;96231.53;5048607;28;20049;-65
2021/04/22 01:30:06;;;;;;;27.48;18.83;;;;;;;8.49;73.86;96227.69;5050479;28;20060;-65
2021/04/22 01:32:32;;;;;;;28.05;19.85;;;;;;;8.49;73.60;96230.41;5051243;28;20119;-65
2021/04/22 01:34:58;;;;;;;31.20;19.98;;;;;;;8.49;73.48;96230.41;5051126;28;20048;-65
2021/04/22 01:37:25;;;;;;;28.55;19.55;;;;;;;8.50;73.43;96228.50;5051298;28;20052;-65
2021/04/22 01:39:52;;;;;;;31.42;19.20;;;;;;;8.52;73.28;96226.28;5051075;28;20049;-65
2021/04/22 01:42:18;;;;;;;34.25;20.90;;;;;;;8.51;73.36;96230.91;5051609;28;20045;-65
2021/04/22 01:44:44;;;;;;;30.75;20.05;;;;;;;8.45;73.34;96225.91;5050812;28;20441;-65
2021/04/22 01:47:10;;;;;;;29.25;19.77;;;;;;;8.45;73.38;96220.47;5051457;28;20087;-65
2021/04/22 01:49:36;;;;;;;31.30;20.77;;;;;;;8.42;73.68;96226.53;5050915;28;20072;-65
2021/04/22 01:52:02;;;;;;;31.45;19.60;;;;;;;8.39;74.13;96225.22;5051010;28;20076;-66
2021/04/22 01:54:28;;;;;;;31.00;19.95;;;;;;;8.39;74.27;96227.94;5051174;28;20060;-65
2021/04/22 01:56:55;;;;;;;31.27;19.40;;;;;;;8.33;73.92;96229.94;5050532;28;20159;-65
2021/04/22 01:59:21;;;;;;;29.08;19.77;;;;;;;8.31;74.00;96234.06;5050870;28;20053;-65
2021/04/22 02:01:47;;;;;;;28.85;18.17;;;;;;;8.30;74.02;96224.31;5050623;28;20492;-65
2021/04/22 02:04:13;;;;;;;30.00;19.20;;;;;;;8.29;73.17;96238.97;5051234;28;20436;-65
2021/04/22 02:06:39;;;;;;;26.92;18.05;;;;;;;8.30;72.99;96243.28;5050230;28;20053;-65
2021/04/22 02:09:06;;;;;;;27.45;17.92;;;;;;;8.29;73.10;96241.69;5051051;28;20057;-65
2021/04/22 02:11:32;;;;;;;25.10;16.58;;;;;;;8.32;72.82;96252.75;5050241;28;20045;-65
2021/04/22 02:14:00;;;;;;;26.92;16.90;;;;;;;8.24;72.33;96258.09;5051379;28;20183;-64
2021/04/22 02:16:26;;;;;;;24.38;16.98;;;;;;;8.19;72.55;96255.47;5050002;28;20120;-65
2021/04/22 02:18:52;;;;;;;25.67;17.05;;;;;;;8.16;72.78;96250.69;5050687;28;20591;-65
2021/04/22 02:21:18;;;;;;;25.25;17.13;;;;;;;8.14;72.90;96250.16;5050289;28;20069;-65
2021/04/22 02:23:44;;;;;;;24.95;17.35;;;;;;;8.10;73.06;96255.41;5050361;28;20041;-65
2021/04/22 02:26:10;;;;;;;25.90;16.95;;;;;;;8.08;73.45;96261.13;5050395;28;20059;-65
2021/04/22 02:28:36;;;;;;;23.77;16.00;;;;;;;8.06;73.32;96263.34;5049648;28;20049;-65
2021/04/22 02:31:03;;;;;;;23.20;16.52;;;;;;;8.07;73.30;96258.72;5050478;28;20124;-66
2021/04/22 02:33:29;;;;;;;26.92;16.90;;;;;;;8.05;73.42;96256.31;5049995;28;20052;-65
2021/04/22 02:35:55;;;;;;;26.60;16.75;;;;;;;8.05;73.08;96253.59;5051189;28;20041;-65
2021/04/22 02:38:21;;;;;;;24.52;17.33;;;;;;;8.02;72.81;96251.50;5049421;28;20045;-65
2021/04/22 02:40:49;;;;;;;23.50;16.75;;;;;;;7.99;73.09;96252.13;5050529;28;20048;-65
2021/04/22 02:43:17;;;;;;;26.52;16.50;;;;;;;7.96;73.03;96251.91;5050159;28;20053;-65
2021/04/22 02:45:45;;;;;;;31.73;17.60;;;;;;;7.92;73.16;96246.28;5050029;28;20392;-65
2021/04/22 02:48:13;;;;;;;27.33;17.23;;;;;;;7.88;73.38;96245.28;5050023;28;20037;-65
2021/04/22 02:50:42;;;;;;;26.08;17.08;;;;;;;7.79;73.99;96241.69;5049517;28;20041;-65
2021/04/22 02:53:08;;;;;;;29.52;18.27;;;;;;;7.75;74.23;96246.13;5050207;28;20049;-65
2021/04/22 02:55:34;;;;;;;23.73;16.25;;;;;;;7.71;74.33;96240.47;5049498;28;20053;-65
2021/04/22 02:58:01;;;;;;;27.80;17.83;;;;;;;7.67;74.09;96238.66;5050297;28;20497;-65
2021/04/22 03:00:27;;;;;;;26.95;16.42;;;;;;;7.61;74.09;96231.75;5049351;28;20483;-65
2021/04/22 03:02:53;;;;;;;26.02;16.40;;;;;;;7.55;74.25;96225.63;5050330;28;20729;-65
2021/04/22 03:05:20;;;;;;;26.05;16.38;;;;;;;7.50;74.48;96234.66;5049395;28;20049;-65
2021/04/22 03:07:46;;;;;;;25.40;16.52;;;;;;;7.48;74.33;96236.88;5050075;28;20053;-65
2021/04/22 03:10:15;;;;;;;25.40;15.73;;;;;;;7.45;74.62;96237.47;5049566;28;20049;-65
2021/04/22 03:12:41;;;;;;;23.50;15.70;;;;;;;7.44;74.33;96235.88;5050565;28;20555;-65
2021/04/22 03:15:09;;;;;;;27.45;16.83;;;;;;;7.44;74.42;96243.19;5050148;28;20048;-65
2021/04/22 03:17:36;;;;;;;27.42;16.63;;;;;;;7.43;74.14;96234.28;5049448;28;20741;-65
2021/04/22 03:20:03;;;;;;;25.75;16.05;;;;;;;7.41;74.11;96236.47;5050248;28;20403;-66
2021/04/22 03:22:31;;;;;;;25.77;16.00;;;;;;;7.38;73.96;96249.81;5049365;28;20543;-65
2021/04/22 03:24:57;;;;;;;24.15;15.07;;;;;;;7.27;74.23;96241.88;5050356;28;20144;-65
2021/04/22 03:27:23;;;;;;;25.98;15.77;;;;;;;7.23;74.49;96242.78;5048640;28;20419;-65
2021/04/22 03:29:49;;;;;;;24.90;15.57;;;;;;;7.21;74.43;96245.00;5050092;28;20044;-65
2021/04/22 03:32:14;;;;;;;24.10;15.95;;;;;;;7.20;74.45;96252.28;5049221;28;20076;-65
2021/04/22 03:34:40;;;;;;;23.90;16.25;;;;;;;7.21;74.50;96253.13;5049734;28;20056;-65
2021/04/22 03:37:06;;;;;;;29.88;16.30;;;;;;;7.20;74.21;96256.91;5049560;28;20041;-66
2021/04/22 03:39:33;;;;;;;28.17;15.65;;;;;;;7.21;74.52;96248.50;5049265;28;20420;-65
2021/04/22 03:42:00;;;;;;;24.00;15.13;;;;;;;7.21;74.59;96250.41;5050384;28;20045;-65
2021/04/22 03:44:26;;;;;;;22.48;15.38;;;;;;;7.23;74.40;96250.91;5048539;28;20049;-65
2021/04/22 03:46:51;;;;;;;24.90;15.75;;;;;;;7.23;74.35;96257.13;5050137;28;20102;-65
2021/04/22 03:49:17;;;;;;;23.90;15.73;;;;;;;7.24;74.30;96257.91;5048620;28;20045;-65
2021/04/22 03:51:43;;;;;;;25.83;15.23;;;;;;;7.28;74.16;96251.63;5050786;28;20060;-65
2021/04/22 03:54:09;;;;;;;22.65;14.88;;;;;;;7.32;73.90;96252.63;5052659;28;20037;-65
2021/04/22 03:56:36;;;;;;;25.00;15.98;;;;;;;7.37;73.76;96257.16;5053478;28;20052;-65
2021/04/22 03:59:03;;;;;;;22.40;14.98;;;;;;;7.43;74.13;96260.56;5052293;28;20580;-65
2021/04/22 04:01:29;;;;;;;24.70;14.93;;;;;;;7.45;73.80;96275.41;5053148;28;20043;-65
2021/04/22 04:03:55;;;;;;;25.42;15.30;;;;;;;7.48;73.62;96274.81;5053425;28;20083;-65
2021/04/22 04:06:21;;;;;;;25.38;15.43;;;;;;;7.51;73.33;96286.94;5052373;28;20049;-65
2021/04/22 04:08:47;;;;;;;24.15;15.20;;;;;;;7.48;73.32;96280.22;5053789;28;20527;-65
2021/04/22 04:11:13;;;;;;;25.35;16.20;;;;;;;7.49;72.95;96286.44;5052027;28;20106;-65
2021/04/22 04:13:40;;;;;;;25.90;15.43;;;;;;;7.41;72.91;96279.81;5053794;28;20072;-65
2021/04/22 04:16:06;;;;;;;27.73;14.93;;;;;;;7.40;73.05;96291.75;5052007;28;20048;-65
2021/04/22 04:18:32;;;;;;;24.27;15.50;;;;;;;7.47;73.19;96288.66;5053404;28;20041;-65
2021/04/22 04:20:58;;;;;;;22.83;15.02;;;;;;;7.48;73.26;96296.50;5052223;28;20048;-65
2021/04/22 04:23:25;;;;;;;25.73;15.88;;;;;;;7.44;73.09;96300.91;5052452;28;20442;-65
2021/04/22 04:25:51;;;;;;;24.90;15.40;;;;;;;7.31;73.00;96301.69;5053023;28;20129;-65
2021/04/22 04:28:17;;;;;;;26.98;16.13;;;;;;;7.24;73.32;96306.66;5052509;28;20045;-65
2021/04/22 04:30:44;;;;;;;22.85;14.93;;;;;;;7.26;73.28;96305.28;5053295;28;20152;-65
2021/04/22 04:33:10;;;;;;;24.90;15.80;;;;;;;7.26;73.19;96305.28;5051611;28;20059;-65
2021/04/22 04:35:36;;;;;;;24.75;16.58;;;;;;;7.31;73.12;96309.81;5053339;28;20049;-65
2021/04/22 04:38:02;;;;;;;27.33;16.33;;;;;;;7.36;73.34;96312.44;5051835;28;20096;-65
2021/04/22 04:40:28;;;;;;;29.60;17.15;;;;;;;7.40;73.47;96321.56;5053009;28;20519;-65
2021/04/22 04:42:55;;;;;;;25.17;16.67;;;;;;;7.47;73.43;96323.88;5051955;28;20049;-65
2021/04/22 04:45:21;;;;;;;25.50;16.35;;;;;;;7.50;73.25;96315.16;5052259;28;20045;-65
2021/04/22 04:47:48;;;;;;;26.02;17.30;;;;;;;7.46;72.82;96324.97;5052269;28;20045;-65
2021/04/22 04:50:16;;;;;;;25.23;16.23;;;;;;;7.43;73.20;96323.69;5051969;28;20064;-65
2021/04/22 04:52:42;;;;;;;27.10;15.85;;;;;;;7.53;72.79;96331.63;5052703;28;20052;-65
2021/04/22 04:55:09;;;;;;;23.20;15.35;;;;;;;7.64;72.45;96331.44;5051414;28;20049;-65
2021/04/22 04:57:36;;;;;;;24.65;16.08;;;;;;;7.71;72.25;96334.53;5052121;28;20577;-65
2021/04/22 05:00:03;;;;;;;25.48;15.38;;;;;;;7.84;72.08;96337.28;5051135;28;20045;-66
2021/04/22 05:02:29;;;;;;;25.40;16.02;;;;;;;7.98;71.79;96336.47;5052666;28;20044;-65
2021/04/22 05:04:56;;;;;;;20.50;14.55;;;;;;;8.07;72.06;96338.16;5051599;28;20065;-65
2021/04/22 05:07:22;;;;;;;24.02;14.95;;;;;;;8.05;71.20;96345.00;5052077;28;20480;-65
2021/04/22 05:09:48;;;;;;;22.77;15.25;;;;;;;8.09;71.29;96348.72;5051763;28;20045;-65
2021/04/22 05:12:14;;;;;;;21.27;14.65;;;;;;;8.07;70.92;96354.44;5052147;28;20131;-65
2021/04/22 05:14:40;;;;;;;25.00;14.63;;;;;;;8.01;71.71;96352.94;5052593;28;20441;-65
2021/04/22 05:17:06;;;;;;;24.48;14.35;;;;;;;8.06;71.54;96360.19;5051353;28;20064;-65
2021/04/22 05:19:32;;;;;;;23.13;14.18;;;;;;;8.03;71.71;96358.84;5052585;28;20060;-65
2021/04/22 05:21:59;;;;;;;21.80;13.90;;;;;;;8.05;71.50;96367.50;5051261;28;20049;-65
2021/04/22 05:24:25;;;;;;;20.20;14.25;;;;;;;8.13;71.65;96376.03;5051990;28;20103;-65
2021/04/22 05:26:51;;;;;;;22.05;14.35;;;;;;;8.20;72.51;96387.31;5050604;28;20044;-65
2021/04/22 05:29:17;;;;;;;22.48;14.32;;;;;;;8.31;72.03;96381.38;5052031;28;20384;-65
2021/04/22 05:31:43;;;;;;;20.25;14.25;;;;;;;8.43;72.12;96386.31;5050765;28;20056;-65
2021/04/22 05:34:09;;;;;;;20.42;13.98;;;;;;;8.51;72.30;96385.59;5051637;28;20065;-65
2021/04/22 05:36:35;;;;;;;21.45;13.32;;;;;;;8.65;71.98;96385.56;5051424;28;20057;-65
2021/04/22 05:39:02;;;;;;;21.70;14.23;;;;;;;8.69;71.23;96380.34;5051677;28;20458;-72
2021/04/22 05:41:28;;;;;;;23.73;14.82;;;;;;;8.82;71.00;96382.22;5051735;28;20044;-72
2021/04/22 05:43:54;;;;;;;24.08;14.57;;;;;;;8.88;70.06;96376.38;5051301;28;20045;-71
2021/04/22 05:46:20;;;;;;;22.15;14.13;;;;;;;8.80;70.08;96381.72;5051336;28;20068;-71
2021/04/22 05:48:46;;;;;;;24.10;14.82;;;;;;;8.76;70.17;96383.44;5051090;28;20145;-70
2021/04/22 05:51:12;;;;;;;22.17;14.63;;;;;;;8.79;70.29;96385.56;5051588;28;20283;-71
2021/04/22 05:53:38;;;;;;;23.35;14.30;;;;;;;8.79;70.74;96388.25;5050743;28;20083;-71
2021/04/22 05:56:06;;;;;;;24.45;15.63;;;;;;;8.72;71.09;96391.41;5051635;28;20049;-71
2021/04/22 05:58:32;;;;;;;24.52;15.27;;;;;;;8.69;70.75;96392.00;5050633;28;20044;-71
2021/04/22 06:00:58;;;;;;;23.02;14.38;;;;;;;8.61;70.81;96398.97;5051758;28;20056;-71
2021/04/22 06:03:24;;;;;;;23.30;14.32;;;;;;;8.66;71.58;96392.59;5049876;28;20045;-71
2021/04/22 06:05:50;;;;;;;22.70;14.98;;;;;;;8.73;71.04;96394.91;5051144;28;20044;-71
2021/04/22 06:08:16;;;;;;;24.85;15.43;;;;;;;8.85;72.34;96397.91;5051157;28;20132;-71
2021/04/22 06:10:42;;;;;;;22.33;14.95;;;;;;;8.95;71.75;96400.38;5050742;28;20057;-71
2021/04/22 06:13:11;;;;;;;25.65;15.10;;;;;;;9.04;71.51;96408.63;5051023;28;20627;-71
2021/04/22 06:15:37;;;;;;;23.52;15.63;;;;;;;9.22;71.47;96407.63;5050131;28;20103;-71
2021/04/22 06:18:03;;;;;;;24.10;14.95;;;;;;;9.39;70.85;96401.53;5051069;28;20111;-71
2021/04/22 06:20:29;;;;;;;21.23;14.15;;;;;;;9.56;70.44;96396.22;5050289;28;20037;-71
2021/04/22 06:22:55;;;;;;;22.38;14.07;;;;;;;9.68;69.30;96393.72;5051186;28;20045;-71
2021/04/22 06:25:22;;;;;;;23.15;14.50;;;;;;;9.82;68.51;96392.88;5049995;28;20132;-71
2021/04/22 06:27:49;;;;;;;20.45;13.57;;;;;;;9.93;68.04;96395.00;5050410;28;20052;-71
2021/04/22 06:30:17;;;;;;;22.60;13.45;;;;;;;10.03;67.73;96399.38;5050301;28;20052;-71
2021/04/22 06:32:43;;;;;;;22.58;14.98;;;;;;;10.14;67.39;96397.19;5050420;28;20483;-69
2021/04/22 06:35:11;;;;;;;20.30;14.07;;;;;;;10.30;67.31;96397.59;5048713;28;20052;-70
2021/04/22 06:37:38;;;;;;;20.10;14.52;;;;;;;10.38;66.44;96397.59;5050200;28;20666;-69
2021/04/22 06:40:09;;;;;;;21.33;13.95;;;;;;;10.48;66.21;96396.50;5050376;28;20048;-70
2021/04/22 06:42:35;;;;;;;21.58;13.55;;;;;;;10.55;65.03;96405.03;5032615;28;20060;-69
2021/04/22 06:45:01;;;;;;;19.50;13.60;;;;;;;10.55;64.96;96412.41;5050195;28;20053;-70
2021/04/22 06:47:28;;;;;;;21.92;14.15;;;;;;;10.61;64.51;96413.84;5050234;28;20052;-70
2021/04/22 06:49:54;;;;;;;21.00;13.77;;;;;;;10.65;64.47;96417.56;5050418;28;20052;-69
2021/04/22 06:52:20;;;;;;;19.52;13.68;;;;;;;10.70;64.30;96423.66;5049780;28;20079;-70
2021/04/22 06:54:46;;;;;;;20.17;13.57;;;;;;;10.77;63.44;96433.28;5050251;28;20688;-70
2021/04/22 06:57:14;;;;;;;21.02;14.18;;;;;;;10.91;65.28;96436.66;5046440;28;20500;-70
2021/04/22 06:59:41;;;;;;;23.02;13.95;;;;;;;10.98;64.58;96434.28;5048255;28;20071;-69
2021/04/22 07:02:08;;;;;;;19.05;12.77;;;;;;;11.05;63.17;96436.53;5048864;28;20041;-70
2021/04/22 07:04:35;;;;;;;19.08;13.40;;;;;;;11.03;61.85;96442.31;5048500;28;20053;-70
2021/04/22 07:07:01;;;;;;;22.70;13.52;;;;;;;11.06;63.06;96435.41;5049974;28;20466;-70
2021/04/22 07:09:27;;;;;;;21.75;12.68;;;;;;;11.16;62.10;96438.63;5048893;28;20519;-69
2021/04/22 07:11:53;;;;;;;19.42;13.85;;;;;;;11.30;61.93;96440.41;5049868;28;20045;-69
2021/04/22 07:14:19;;;;;;;20.17;13.40;;;;;;;11.40;61.71;96442.81;5049434;28;20068;-70
2021/04/22 07:16:45;;;;;;;21.08;13.75;;;;;;;11.55;62.51;96446.97;5050006;28;20049;-70
2021/04/22 07:19:11;;;;;;;21.30;13.88;;;;;;;11.70;60.61;96450.03;5049543;28;20574;-71
2021/04/22 07:21:38;;;;;;;19.02;13.10;;;;;;;11.74;60.04;96455.59;5050185;28;20128;-69
2021/04/22 07:24:04;;;;;;;20.73;14.07;;;;;;;11.79;61.14;96454.66;5050163;28;20049;-70
2021/04/22 07:26:30;;;;;;;20.17;13.52;;;;;;;11.90;61.81;96464.13;5050730;28;20052;-69
2021/04/22 07:28:56;;;;;;;22.25;14.25;;;;;;;12.00;61.60;96477.44;5054432;28;20151;-69
2021/04/22 07:31:22;;;;;;;17.20;12.65;;;;;;;12.04;60.19;96472.13;5053012;28;20049;-69
2021/04/22 07:33:48;;;;;;;19.30;13.35;;;;;;;12.18;59.32;96470.03;5054758;28;20049;-69
2021/04/22 07:36:15;;;;;;;17.90;13.15;;;;;;;12.37;59.84;96472.38;5053193;28;20157;-70
2021/04/22 07:38:42;;;;;;;22.60;13.10;;;;;;;12.74;59.79;96482.53;5054255;28;20060;-69
2021/04/22 07:41:08;;;;;;;19.08;12.95;;;;;;;13.30;56.49;96487.84;5053139;28;20049;-70
2021/04/22 07:43:35;;;;;;;18.85;12.85;;;;;;;13.84;55.84;96488.72;5053831;28;20060;-70
2021/04/22 07:46:01;;;;;;;21.27;13.43;;;;;;;14.06;53.95;96493.03;5053774;28;20049;-70
2021/04/22 07:48:27;;;;;;;17.73;13.13;;;;;;;14.47;52.37;96491.34;5053627;28;20045;-69
2021/04/22 07:50:53;;;;;;;21.00;12.93;;;;;;;14.80;51.13;96494.03;5053945;28;20056;-69
2021/04/22 07:53:19;;;;;;;19.25;13.05;;;;;;;14.80;51.24;96494.03;5052744;28;20127;-69
2021/04/22 07:55:46;;;;;;;18.80;12.70;;;;;;;14.76;51.53;96493.09;5054048;28;20137;-69
2021/04/22 07:58:15;;;;;;;18.70;13.73;;;;;;;15.19;51.12;96497.25;5052176;28;20037;-70
2021/04/22 08:00:43;;;;;;;16.95;12.98;;;;;;;15.71;48.59;96493.72;5053653;28;20057;-69
2021/04/22 08:03:12;;;;;;;18.13;12.57;;;;;;;15.97;48.54;96495.25;5052539;28;20045;-70
2021/04/22 08:05:38;;;;;;;19.38;12.15;;;;;;;16.29;46.54;96494.19;5053193;28;20075;-69
2021/04/22 08:08:05;;;;;;;24.00;13.63;;;;;;;16.42;46.61;96490.22;5053103;28;20068;-71
2021/04/22 08:10:33;;;;;;;18.13;12.50;;;;;;;16.02;46.54;96486.75;5053030;28;20095;-70
2021/04/22 08:13:02;;;;;;;18.00;13.05;;;;;;;16.06;46.96;96484.91;5053657;28;20052;-69
2021/04/22 08:15:29;;;;;;;20.58;13.98;;;;;;;16.34;47.18;96493.13;5052387;28;20040;-70
2021/04/22 08:17:55;;;;;;;18.35;14.27;;;;;;;16.57;47.38;96496.91;5053657;28;20045;-70
2021/04/22 08:20:24;;;;;;;18.35;13.63;;;;;;;16.88;45.64;96493.38;5051940;28;20138;-70
2021/04/22 08:22:51;;;;;;;20.35;13.82;;;;;;;17.19;44.93;96500.03;5053247;28;20068;-70
2021/04/22 08:25:22;;;;;;;21.23;14.90;;;;;;;17.40;45.40;96507.97;5051855;28;20568;-69
2021/04/22 08:27:51;;;;;;;18.67;13.80;;;;;;;17.34;43.24;96507.47;5052725;28;20044;-69
2021/04/22 08:30:20;;;;;;;18.23;12.65;;;;;;;17.58;44.02;96500.13;5052128;28;20139;-69
2021/04/22 08:32:46;;;;;;;19.83;14.20;;;;;;;17.49;42.22;96508.59;5052425;28;20049;-69
2021/04/22 08:35:13;;;;;;;18.08;14.05;;;;;;;17.31;44.46;96496.38;5052317;28;20132;-69
2021/04/22 08:37:39;;;;;;;17.92;13.73;;;;;;;17.40;44.04;96506.03;5051639;28;20423;-70
2021/04/22 08:40:08;;;;;;;18.63;13.82;;;;;;;17.64;43.13;96504.97;5052714;28;20049;-70
2021/04/22 08:42:34;;;;;;;21.52;14.60;;;;;;;17.86;41.89;96514.56;5051530;28;20125;-69
2021/04/22 08:45:00;;;;;;;23.40;13.98;;;;;;;17.72;41.88;96516.97;5052984;28;20060;-69
2021/04/22 08:47:28;;;;;;;21.90;14.63;;;;;;;17.55;43.79;96518.16;5051742;28;20124;-70
2021/04/22 08:49:54;;;;;;;19.67;14.43;;;;;;;17.52;41.78;96521.63;5052785;28;20048;-69
2021/04/22 08:52:21;;;;;;;18.85;14.98;;;;;;;17.51;41.84;96525.53;5051767;28;20061;-69
2021/04/22 08:54:47;;;;;;;19.70;14.65;;;;;;;17.44;43.75;96526.19;5052214;28;20048;-69
2021/04/22 08:57:13;;;;;;;20.58;15.15;;;;;;;17.52;42.65;96529.09;5051631;28;20037;-70
2021/04/22 08:59:39;;;;;;;22.27;14.77;;;;;;;17.35;43.04;96528.31;5052050;28;20500;-70
2021/04/22 09:02:05;;;;;;;22.40;16.15;;;;;;;17.14;42.71;96536.88;5052284;28;20091;-71
2021/04/22 09:04:33;;;;;;;22.83;15.30;;;;;;;16.78;44.22;96537.13;5051621;28;20052;-69
2021/04/22 09:06:59;;;;;;;23.90;15.25;;;;;;;16.24;46.06;96538.41;5052859;28;20415;-69
2021/04/22 09:09:25;;;;;;;22.05;16.10;;;;;;;15.81;47.31;96534.41;5051327;28;20045;-70
2021/04/22 09:11:51;;;;;;;22.08;16.45;;;;;;;15.34;47.19;96540.41;5052515;28;20790;-69
2021/04/22 09:14:19;;;;;;;23.60;17.05;;;;;;;15.38;47.94;96533.09;5041364;28;20136;-69
2021/04/22 09:16:48;;;;;;;23.77;16.27;;;;;;;15.48;47.82;96540.06;5052164;28;20049;-69
2021/04/22 09:19:17;;;;;;;21.80;16.15;;;;;;;15.65;48.99;96536.28;5051382;28;20086;-69
2021/04/22 09:21:50;;;;;;;27.02;16.33;;;;;;;15.77;46.90;96539.03;5051342;28;20499;-68
2021/04/22 09:24:19;;;;;;;21.70;16.08;;;;;;;16.15;45.89;96540.50;5051971;28;20045;-68
2021/04/22 09:26:50;;;;;;;23.65;16.48;;;;;;;16.23;45.61;96538.75;5050311;28;20515;-68
2021/04/22 09:29:32;;;;;;;23.08;15.35;;;;;;;16.27;47.11;96543.19;5050097;28;20045;-68
2021/04/22 09:32:14;;;;;;;24.50;16.77;;;;;;;16.29;47.65;96546.41;5050839;28;20049;-68
2021/04/22 09:34:43;;;;;;;23.77;15.90;;;;;;;16.22;45.49;96543.44;5051581;28;20063;-68
2021/04/22 09:37:10;;;;;;;20.38;15.80;;;;;;;16.21;45.28;96544.59;5050999;28;20041;-68
2021/04/22 09:39:36;;;;;;;22.40;16.45;;;;;;;16.14;47.57;96539.72;5051362;28;20408;-68
2021/04/22 09:42:07;;;;;;;23.13;16.45;;;;;;;15.98;46.40;96546.28;5051025;28;20053;-69
2021/04/22 09:44:34;;;;;;;23.05;16.27;;;;;;;15.86;47.02;96541.63;5050720;28;20099;-73
2021/04/22 09:47:07;;;;;;;24.63;16.85;;;;;;;15.56;47.27;96541.91;5052017;28;20052;-68
2021/04/22 09:49:43;;;;;;;23.20;17.38;;;;;;;15.22;47.73;96551.41;5048386;28;20518;-68
2021/04/22 09:52:09;;;;;;;25.25;19.05;;;;;;;15.09;48.55;96541.59;5048429;28;20048;-69
2021/04/22 09:54:43;;;;;;;28.23;19.73;;;;;;;14.82;50.08;96541.06;5047359;28;20049;-68
2021/04/22 09:57:19;;;;;;;24.42;19.20;;;;;;;14.60;49.04;96549.72;5048406;28;20051;-69
2021/04/22 09:59:45;;;;;;;24.30;18.75;;;;;;;14.39;49.98;96544.25;5050436;28;20048;-68
2021/04/22 10:02:11;;;;;;;28.30;19.92;;;;;;;14.26;50.75;96539.91;5049279;28;20511;-68
2021/04/22 10:04:40;;;;;;;28.90;18.55;;;;;;;14.06;51.37;96542.31;5051013;28;20065;-68
2021/04/22 10:07:19;;;;;;;26.25;19.00;;;;;;;13.89;51.22;96538.94;5051144;28;20454;-69
2021/04/22 10:09:46;;;;;;;26.73;19.83;;;;;;;13.76;52.00;96538.84;5051212;28;20118;-68
2021/04/22 10:12:20;;;;;;;25.88;18.95;;;;;;;13.72;51.76;96548.88;5050132;28;20056;-68
2021/04/22 10:14:46;;;;;;;25.30;18.95;;;;;;;13.67;51.74;96549.06;5050401;28;20060;-68
2021/04/22 10:17:14;;;;;;;29.85;19.50;;;;;;;13.71;53.33;96544.53;5049713;28;20128;-68
2021/04/22 10:19:40;;;;;;;25.08;18.70;;;;;;;13.84;51.62;96535.25;5050164;28;20412;-68
2021/04/22 10:22:06;;;;;;;26.33;18.10;;;;;;;13.87;53.11;96536.50;5050601;28;20045;-70
2021/04/22 10:24:33;;;;;;;25.00;18.15;;;;;;;14.29;52.04;96544.69;5049683;28;20037;-68
2021/04/22 10:27:02;;;;;;;28.40;17.73;;;;;;;14.78;51.22;96539.38;5050718;28;20401;-68
2021/04/22 10:29:29;;;;;;;24.30;17.13;;;;;;;15.22;50.98;96534.94;5029503;28;20052;-68
2021/04/22 10:31:55;;;;;;;27.70;17.77;;;;;;;15.49;49.68;96527.94;5031263;28;20099;-69
2021/04/22 10:34:29;;;;;;;23.63;16.63;;;;;;;15.67;49.67;96534.00;5029467;28;20049;-68
2021/04/22 10:36:57;;;;;;;23.75;17.13;;;;;;;15.82;47.59;96538.78;5030711;28;20045;-68
2021/04/22 10:39:27;;;;;;;22.75;17.08;;;;;;;16.24;46.45;96538.41;5029869;28;20097;-68
2021/04/22 10:41:54;;;;;;;25.48;17.42;;;;;;;16.55;47.82;96531.38;5029651;28;20056;-67
2021/04/22 10:44:23;;;;;;;23.38;17.77;;;;;;;16.66;46.17;96537.97;5029738;28;20447;-68
2021/04/22 10:46:50;;;;;;;25.60;18.27;;;;;;;16.98;43.13;96532.53;5029785;28;20068;-68
2021/04/22 10:49:16;;;;;;;25.17;18.50;;;;;;;16.91;44.12;96538.63;5030080;28;20041;-68
2021/04/22 10:51:44;;;;;;;26.67;18.73;;;;;;;16.76;44.03;96537.50;5029637;28;20060;-69
2021/04/22 10:54:10;;;;;;;27.83;17.30;;;;;;;16.42;43.27;96539.69;5031788;28;20504;-69
2021/04/22 10:56:36;;;;;;;26.33;18.77;;;;;;;16.06;44.61;96526.13;5048869;28;20056;-69
2021/04/22 10:59:03;;;;;;;23.08;18.95;;;;;;;15.83;46.24;96529.41;5037179;28;20090;-70
2021/04/22 11:01:37;;;;;;;27.30;20.85;;;;;;;15.73;46.25;96524.38;5049224;28;20068;-68
2021/04/22 11:04:09;;;;;;;28.48;21.42;;;;;;;15.42;46.78;96535.16;5049668;28;20100;-69
2021/04/22 11:06:38;;;;;;;26.40;20.50;;;;;;;15.53;47.48;96525.31;5049623;28;20052;-68
2021/04/22 11:09:17;;;;;;;26.33;21.35;;;;;;;15.51;46.55;96522.13;5048244;28;20083;-69
2021/04/22 11:11:56;;;;;;;28.23;22.40;;;;;;;15.79;46.72;96517.50;5050188;28;20527;-68
2021/04/22 11:14:32;;;;;;;29.17;21.73;;;;;;;15.80;46.94;96524.59;5048520;28;20506;-69
2021/04/22 11:16:59;;;;;;;30.67;22.50;;;;;;;15.73;46.51;96518.91;5049606;28;20714;-69
2021/04/22 11:19:31;;;;;;;30.30;21.90;;;;;;;15.95;46.16;96514.81;5049183;28;20052;-69
2021/04/22 11:21:58;;;;;;;30.77;21.67;;;;;;;16.33;45.29;96519.81;5049189;28;20037;-68